createdAt,value
2022-08-10T00:02:12.649Z,17.50
2022-08-10T00:04:39.325Z,17.60
2022-08-10T00:07:05.993Z,17.70
2022-08-10T00:09:32.665Z,17.80
2022-08-10T00:12:19.335Z,17.70
2022-08-10T00:14:46.169Z,17.70
2022-08-10T00:17:12.850Z,17.60
2022-08-10T00:20:03.630Z,17.70
2022-08-10T00:22:26.547Z,17.60
2022-08-10T00:24:57.269Z,17.60
2022-08-10T00:27:57.859Z,17.70
2022-08-10T00:30:12.113Z,17.80
2022-08-10T00:32:38.750Z,17.80
2022-08-10T00:35:06.313Z,17.90
2022-08-10T00:37:32.914Z,17.90
2022-08-10T00:39:59.647Z,17.90
2022-08-10T00:42:26.485Z,17.70
2022-08-10T00:44:53.610Z,17.70
2022-08-10T00:47:36.192Z,17.70
2022-08-10T00:50:06.707Z,17.70
2022-08-10T00:52:35.231Z,17.60
2022-08-10T00:55:04.235Z,17.60
2022-08-10T00:57:30.985Z,17.60
2022-08-10T01:00:00.107Z,17.60
2022-08-10T01:02:29.786Z,17.60
2022-08-10T01:05:00.279Z,17.50
2022-08-10T01:07:41.923Z,17.50
2022-08-10T01:10:28.321Z,17.50
2022-08-10T01:13:06.785Z,17.50
2022-08-10T01:15:51.480Z,17.50
2022-08-10T01:18:56.600Z,17.40
2022-08-10T01:21:59.189Z,17.40
2022-08-10T01:24:34.766Z,17.30
2022-08-10T01:27:27.468Z,17.20
2022-08-10T01:30:02.869Z,17.20
2022-08-10T01:32:41.286Z,17.10
2022-08-10T01:35:10.895Z,16.90
2022-08-10T01:37:43.738Z,16.80
2022-08-10T01:40:24.947Z,16.80
2022-08-10T01:42:54.261Z,16.60
2022-08-10T01:45:24.234Z,16.50
2022-08-10T01:48:16.508Z,16.50
2022-08-10T01:50:59.652Z,16.40
2022-08-10T01:53:53.596Z,16.30
2022-08-10T01:56:23.441Z,16.20
2022-08-10T01:58:54.451Z,16.20
2022-08-10T02:01:25.417Z,16.10
2022-08-10T02:04:03.830Z,16.10
2022-08-10T02:06:36.938Z,16.00
2022-08-10T02:09:07.104Z,16.00
2022-08-10T02:11:57.561Z,16.00
2022-08-10T02:14:33.590Z,16.00
2022-08-10T02:17:07.669Z,16.00
2022-08-10T02:19:38.392Z,15.90
2022-08-10T02:22:36.276Z,15.90
2022-08-10T02:24:55.964Z,15.80
2022-08-10T02:27:24.851Z,15.80
2022-08-10T02:29:53.658Z,15.70
2022-08-10T02:32:36.604Z,15.70
2022-08-10T02:35:13.942Z,15.70
2022-08-10T02:37:51.193Z,15.80
2022-08-10T02:45:12.911Z,15.80
2022-08-10T02:45:21.567Z,15.80
2022-08-10T02:46:09.756Z,15.70
2022-08-10T02:48:42.495Z,15.60
2022-08-10T02:51:16.027Z,15.60
2022-08-10T02:53:54.298Z,15.50
2022-08-10T02:56:36.523Z,15.40
2022-08-10T02:59:11.023Z,15.30
2022-08-10T03:01:42.765Z,15.20
2022-08-10T03:04:20.630Z,15.10
2022-08-10T03:07:12.949Z,15.10
2022-08-10T03:09:41.517Z,15.10
2022-08-10T03:12:16.781Z,15.10
2022-08-10T03:14:59.835Z,15.00
2022-08-10T03:17:28.196Z,15.00
2022-08-10T03:20:34.625Z,14.80
2022-08-10T03:22:45.152Z,14.80
2022-08-10T03:25:13.774Z,14.80
2022-08-10T03:27:42.580Z,14.90
2022-08-10T03:30:31.638Z,14.70
2022-08-10T03:32:57.449Z,14.70
2022-08-10T03:35:25.040Z,14.70
2022-08-10T03:37:51.851Z,14.70
2022-08-10T03:40:45.766Z,14.60
2022-08-10T03:43:20.402Z,14.50
2022-08-10T03:46:02.337Z,14.50
2022-08-10T03:48:44.602Z,14.40
2022-08-10T03:51:16.177Z,14.40
2022-08-10T03:54:02.716Z,14.50
2022-08-10T03:56:32.607Z,14.50
2022-08-10T03:59:00.612Z,14.40
2022-08-10T04:02:41.829Z,14.40
2022-08-10T04:04:19.221Z,14.30
2022-08-10T04:06:54.915Z,14.30
2022-08-10T04:09:23.841Z,14.30
2022-08-10T04:11:50.465Z,14.20
2022-08-10T04:14:44.950Z,14.10
2022-08-10T04:17:03.798Z,14.10
2022-08-10T04:19:38.180Z,14.20
2022-08-10T04:22:10.541Z,14.00
2022-08-10T04:24:39.466Z,14.00
2022-08-10T04:27:06.514Z,14.00
2022-08-10T04:29:33.584Z,14.00
2022-08-10T04:32:03.378Z,14.00
2022-08-10T04:34:34.270Z,14.00
2022-08-10T04:37:08.887Z,14.00
2022-08-10T04:39:36.423Z,14.00
2022-08-10T04:42:03.758Z,14.00
2022-08-10T04:44:30.891Z,14.00
2022-08-10T04:46:59.099Z,14.00
2022-08-10T04:49:56.569Z,14.00
2022-08-10T04:52:13.777Z,14.10
2022-08-10T04:54:40.440Z,14.20
2022-08-10T04:57:08.873Z,14.20
2022-08-10T04:59:35.723Z,14.30
2022-08-10T05:02:30.713Z,14.30
2022-08-10T05:04:49.070Z,14.50
2022-08-10T05:07:18.685Z,14.60
2022-08-10T05:10:00.955Z,14.70
2022-08-10T05:12:37.795Z,14.80
2022-08-10T05:15:06.434Z,14.90
2022-08-10T05:17:34.378Z,15.10
2022-08-10T05:20:03.804Z,15.20
2022-08-10T05:22:34.724Z,15.30
2022-08-10T05:25:01.428Z,15.60
2022-08-10T05:27:28.065Z,15.70
2022-08-10T05:30:01.167Z,15.90
2022-08-10T05:32:29.614Z,16.10
2022-08-10T05:34:56.259Z,16.30
2022-08-10T05:38:10.249Z,16.40
2022-08-10T05:40:11.429Z,16.50
2022-08-10T05:42:39.110Z,16.70
2022-08-10T05:45:06.305Z,16.90
2022-08-10T05:48:54.049Z,17.00
2022-08-10T05:50:23.652Z,17.30
2022-08-10T05:52:50.495Z,17.40
2022-08-10T05:55:17.173Z,17.50
2022-08-10T05:57:45.245Z,17.60
2022-08-10T06:00:37.065Z,17.60
2022-08-10T06:03:06.865Z,17.70
2022-08-10T06:05:38.983Z,17.90
2022-08-10T06:08:12.752Z,18.10
2022-08-10T06:10:59.758Z,18.30
2022-08-10T06:14:12.550Z,18.50
2022-08-10T06:16:38.532Z,18.60
2022-08-10T06:19:06.555Z,18.70
2022-08-10T06:21:34.744Z,19.00
2022-08-10T06:24:02.750Z,19.10
2022-08-10T06:26:29.679Z,19.20
2022-08-10T06:29:09.787Z,19.50
2022-08-10T06:31:48.548Z,19.40
2022-08-10T06:34:20.280Z,19.60
2022-08-10T06:36:47.786Z,19.70
2022-08-10T06:39:32.976Z,19.80
2022-08-10T06:42:16.127Z,19.90
2022-08-10T06:44:58.170Z,20.10
2022-08-10T06:47:49.366Z,20.20
2022-08-10T06:50:34.984Z,20.40
2022-08-10T06:53:18.026Z,20.40
2022-08-10T06:55:59.953Z,20.60
2022-08-10T06:58:34.013Z,20.80
2022-08-10T07:01:02.957Z,21.00
2022-08-10T07:03:38.813Z,21.30
2022-08-10T07:06:07.635Z,21.80
2022-08-10T07:08:36.698Z,22.50
2022-08-10T07:11:08.812Z,23.00
2022-08-10T07:14:16.770Z,23.60
2022-08-10T07:16:28.548Z,24.30
2022-08-10T07:18:57.709Z,24.90
2022-08-10T07:21:26.985Z,25.60
2022-08-10T07:24:00.070Z,26.20
2022-08-10T07:26:30.536Z,26.70
2022-08-10T07:28:58.213Z,26.40
2022-08-10T07:31:56.455Z,26.80
2022-08-10T07:34:28.626Z,27.60
2022-08-10T07:37:00.707Z,28.20
2022-08-10T07:40:02.061Z,27.80
2022-08-10T07:42:22.717Z,28.20
2022-08-10T07:44:53.310Z,27.90
2022-08-10T07:47:52.921Z,28.50
2022-08-10T07:50:17.749Z,27.50
2022-08-10T07:52:47.385Z,27.10
2022-08-10T07:55:18.326Z,26.70
2022-08-10T07:57:48.492Z,27.20
2022-08-10T08:00:16.635Z,27.40
2022-08-10T08:02:55.691Z,27.40
2022-08-10T08:05:38.607Z,27.30
2022-08-10T08:08:14.932Z,27.50
2022-08-10T08:10:42.656Z,28.10
2022-08-10T08:13:11.519Z,28.20
2022-08-10T08:16:18.488Z,28.30
2022-08-10T08:18:27.153Z,29.40
2022-08-10T08:20:54.669Z,28.30
2022-08-10T08:24:07.805Z,28.30
2022-08-10T08:26:11.769Z,28.80
2022-08-10T08:28:45.528Z,28.60
2022-08-10T08:31:14.399Z,28.80
2022-08-10T08:33:43.833Z,29.00
2022-08-10T08:36:11.475Z,29.00
2022-08-10T08:38:39.094Z,30.50
2022-08-10T08:41:33.709Z,30.60
2022-08-10T08:44:14.183Z,30.40
2022-08-10T08:48:01.979Z,30.00
2022-08-10T08:50:33.194Z,29.90
2022-08-10T08:53:21.989Z,30.80
2022-08-10T08:56:17.122Z,31.10
2022-08-10T08:59:21.190Z,31.30
2022-08-10T09:02:00.609Z,31.10
2022-08-10T09:04:54.161Z,32.00
2022-08-10T09:08:01.494Z,31.60
2022-08-10T09:10:45.289Z,31.60
2022-08-10T09:13:41.175Z,31.70
2022-08-10T09:16:38.034Z,32.20
2022-08-10T09:19:19.575Z,32.20
2022-08-10T09:22:17.183Z,32.70
2022-08-10T09:25:00.875Z,33.20
2022-08-10T09:27:40.631Z,33.30
2022-08-10T09:30:12.883Z,33.00
2022-08-10T09:36:15.121Z,32.50
2022-08-10T09:36:27.001Z,32.90
2022-08-10T09:40:48.545Z,32.20
2022-08-10T09:42:25.674Z,33.00
2022-08-10T09:45:31.800Z,32.90
2022-08-10T09:48:19.674Z,33.10
2022-08-10T09:51:44.935Z,33.60
2022-08-10T09:54:24.578Z,33.80
2022-08-10T09:57:24.451Z,33.80
2022-08-10T10:00:02.685Z,33.60
2022-08-10T10:02:52.358Z,33.60
2022-08-10T10:05:51.304Z,33.80
2022-08-10T10:08:21.881Z,34.10
2022-08-10T10:11:00.026Z,34.50
2022-08-10T10:14:03.524Z,34.80
2022-08-10T10:16:41.938Z,34.30
2022-08-10T10:19:40.672Z,34.70
2022-08-10T10:22:17.093Z,35.60
2022-08-10T10:24:52.543Z,36.00
2022-08-10T10:27:24.986Z,36.20
2022-08-10T10:30:11.162Z,35.90
2022-08-10T10:33:00.339Z,36.50
2022-08-10T10:35:37.574Z,36.30
2022-08-10T10:38:08.830Z,36.50
2022-08-10T10:40:55.634Z,36.00
2022-08-10T10:43:36.119Z,36.70
2022-08-10T10:46:36.782Z,36.80
2022-08-10T10:49:38.967Z,35.90
2022-08-10T10:52:23.825Z,36.30
2022-08-10T10:55:03.017Z,36.60
2022-08-10T10:57:58.179Z,35.20
2022-08-10T11:00:28.788Z,35.30
2022-08-10T11:03:36.224Z,36.10
2022-08-10T11:06:45.465Z,36.10
2022-08-10T11:10:07.862Z,37.10
2022-08-10T11:12:34.669Z,36.40
2022-08-10T11:15:42.898Z,36.70
2022-08-10T11:18:48.107Z,36.50
2022-08-10T11:21:43.590Z,37.10
2022-08-10T11:24:47.005Z,36.20
2022-08-10T11:27:44.453Z,36.30
2022-08-10T11:30:27.195Z,36.40
2022-08-10T11:33:32.368Z,36.00
2022-08-10T11:36:10.449Z,36.40
2022-08-10T11:39:14.357Z,37.80
2022-08-10T11:42:09.033Z,38.30
2022-08-10T11:44:59.801Z,38.50
2022-08-10T11:47:34.111Z,38.30
2022-08-10T11:50:27.617Z,38.70
2022-08-10T11:53:24.663Z,39.20
2022-08-10T11:55:58.631Z,38.50
2022-08-10T11:58:50.308Z,38.90
2022-08-10T12:01:21.516Z,38.60
2022-08-10T12:03:48.858Z,39.70
2022-08-10T12:06:53.769Z,40.40
2022-08-10T12:10:10.582Z,40.20
2022-08-10T12:11:59.904Z,39.80
2022-08-10T12:14:33.464Z,40.40
2022-08-10T12:17:07.887Z,40.60
2022-08-10T12:19:59.626Z,40.30
2022-08-10T12:22:51.597Z,39.30
2022-08-10T12:25:55.832Z,40.00
2022-08-10T12:28:22.973Z,40.70
2022-08-10T12:31:12.125Z,40.70
2022-08-10T12:34:01.867Z,39.50
2022-08-10T12:36:37.832Z,38.90
2022-08-10T12:39:10.495Z,38.40
2022-08-10T12:41:45.498Z,38.70
2022-08-10T12:44:19.120Z,39.40
2022-08-10T12:47:01.548Z,39.30
2022-08-10T12:50:29.473Z,40.20
2022-08-10T12:52:57.678Z,40.30
2022-08-10T12:55:27.614Z,40.90
2022-08-10T12:57:57.430Z,40.40
2022-08-10T13:00:33.547Z,40.90
2022-08-10T13:03:03.000Z,41.50
2022-08-10T13:06:00.375Z,41.60
2022-08-10T13:08:40.769Z,41.30
2022-08-10T13:12:34.196Z,40.80
2022-08-10T13:14:03.365Z,41.40
2022-08-10T13:16:32.439Z,40.50
2022-08-10T13:19:02.846Z,41.50
2022-08-10T13:21:33.306Z,41.40
2022-08-10T13:24:15.919Z,41.90
2022-08-10T13:27:26.134Z,41.40
2022-08-10T13:29:48.902Z,41.60
2022-08-10T13:32:27.064Z,40.90
2022-08-10T13:34:57.842Z,40.90
2022-08-10T13:37:27.403Z,40.00
2022-08-10T13:40:00.433Z,41.40
2022-08-10T13:42:35.735Z,41.80
2022-08-10T13:45:12.023Z,40.50
2022-08-10T13:47:48.692Z,40.20
2022-08-10T13:50:34.605Z,41.20
2022-08-10T13:53:03.769Z,41.70
2022-08-10T13:55:54.401Z,42.10
2022-08-10T13:58:28.719Z,42.10
2022-08-10T14:00:57.064Z,42.00
2022-08-10T14:03:25.624Z,39.90
2022-08-10T14:05:55.476Z,40.60
2022-08-10T14:08:26.368Z,41.80
2022-08-10T14:11:08.717Z,42.10
2022-08-10T14:13:45.370Z,42.40
2022-08-10T14:16:13.281Z,42.30
2022-08-10T14:18:44.592Z,42.70
2022-08-10T14:21:11.955Z,42.50
2022-08-10T14:23:52.438Z,42.50
2022-08-10T14:26:30.438Z,42.60
2022-08-10T14:29:06.896Z,42.60
2022-08-10T14:31:36.938Z,41.50
2022-08-10T14:34:08.519Z,42.00
2022-08-10T14:36:59.220Z,40.60
2022-08-10T14:39:34.547Z,39.60
2022-08-10T14:42:16.769Z,39.60
2022-08-10T14:44:56.810Z,39.50
2022-08-10T14:47:53.597Z,41.20
2022-08-10T14:50:32.622Z,42.30
2022-08-10T14:53:26.544Z,42.60
2022-08-10T14:56:01.054Z,42.90
2022-08-10T14:59:05.285Z,42.00
2022-08-10T15:02:00.563Z,41.20
2022-08-10T15:04:26.680Z,40.40
2022-08-10T15:07:04.117Z,40.30
2022-08-10T15:09:59.789Z,41.30
2022-08-10T15:12:36.731Z,41.80
2022-08-10T15:15:09.402Z,42.40
2022-08-10T15:17:43.502Z,42.80
2022-08-10T15:20:20.772Z,42.40
2022-08-10T15:22:51.533Z,42.20
2022-08-10T15:25:24.412Z,41.90
2022-08-10T15:28:13.931Z,42.00
2022-08-10T15:30:46.131Z,42.70
2022-08-10T15:34:02.556Z,42.90
2022-08-10T15:36:43.123Z,42.90
2022-08-10T15:40:20.970Z,42.20
2022-08-10T15:42:09.021Z,41.60
2022-08-10T15:44:43.165Z,41.60
2022-08-10T15:47:27.292Z,41.70
2022-08-10T15:50:40.815Z,42.30
2022-08-10T15:53:16.943Z,41.90
2022-08-10T15:55:56.943Z,41.70
2022-08-10T15:58:59.059Z,42.20
2022-08-10T16:02:12.813Z,41.70
2022-08-10T16:04:51.858Z,42.00
2022-08-10T16:07:52.968Z,41.30
2022-08-10T16:10:30.385Z,41.30
2022-08-10T16:13:01.375Z,41.20
2022-08-10T16:15:30.170Z,41.30
2022-08-10T16:18:14.244Z,40.80
2022-08-10T16:20:54.679Z,41.30
2022-08-10T16:23:34.934Z,40.80
2022-08-10T16:26:14.509Z,40.40
2022-08-10T16:28:48.482Z,40.40
2022-08-10T16:31:20.370Z,40.80
2022-08-10T16:33:55.130Z,40.40
2022-08-10T16:36:28.871Z,40.90
2022-08-10T16:38:56.522Z,40.10
2022-08-10T16:42:03.838Z,39.70
2022-08-10T16:44:17.410Z,39.80
2022-08-10T16:46:45.364Z,40.20
2022-08-10T16:49:17.892Z,40.40
2022-08-10T16:51:50.387Z,40.50
2022-08-10T16:54:26.869Z,40.40
2022-08-10T16:57:05.719Z,40.30
2022-08-10T16:59:40.516Z,40.00
2022-08-10T17:02:11.242Z,39.40
2022-08-10T17:04:42.799Z,39.60
2022-08-10T17:07:14.489Z,38.90
2022-08-10T17:09:50.383Z,38.80
2022-08-10T17:12:23.282Z,38.80
2022-08-10T17:15:09.852Z,38.70
2022-08-10T17:17:47.413Z,38.70
2022-08-10T17:20:32.141Z,38.30
2022-08-10T17:23:02.652Z,38.30
2022-08-10T17:25:45.882Z,38.00
2022-08-10T17:28:35.504Z,37.50
2022-08-10T17:31:18.920Z,36.80
2022-08-10T17:33:57.731Z,36.90
2022-08-10T17:36:29.673Z,36.70
2022-08-10T17:38:56.937Z,36.80
2022-08-10T17:41:26.650Z,36.20
2022-08-10T17:44:02.829Z,36.40
2022-08-10T17:46:38.411Z,36.20
2022-08-10T17:49:10.656Z,36.30
2022-08-10T17:51:39.302Z,36.00
2022-08-10T17:54:15.301Z,35.60
2022-08-10T17:56:42.486Z,35.60
2022-08-10T17:59:17.266Z,35.40
2022-08-10T18:02:01.696Z,34.70
2022-08-10T18:04:41.493Z,34.60
2022-08-10T18:07:10.517Z,34.50
2022-08-10T18:09:49.752Z,34.50
2022-08-10T18:12:27.758Z,34.20
2022-08-10T18:15:04.374Z,33.80
2022-08-10T18:17:39.504Z,33.50
2022-08-10T18:20:08.389Z,33.50
2022-08-10T18:22:39.568Z,33.30
2022-08-10T18:25:08.584Z,33.10
2022-08-10T18:28:00.591Z,32.80
2022-08-10T18:30:28.654Z,32.40
2022-08-10T18:33:00.146Z,32.30
2022-08-10T18:35:34.743Z,32.00
2022-08-10T18:38:03.973Z,31.80
2022-08-10T18:40:36.170Z,31.60
2022-08-10T18:44:05.720Z,31.30
2022-08-10T18:45:56.622Z,31.20
2022-08-10T18:48:32.916Z,31.00
2022-08-10T18:51:05.603Z,30.50
2022-08-10T18:53:50.524Z,30.10
2022-08-10T18:56:23.267Z,29.70
2022-08-10T18:59:15.126Z,29.30
2022-08-10T19:02:10.526Z,29.00
2022-08-10T19:04:49.076Z,28.60
2022-08-10T19:07:41.283Z,28.30
2022-08-10T19:10:35.954Z,28.10
2022-08-10T19:13:32.299Z,27.80
2022-08-10T19:16:35.425Z,27.50
2022-08-10T19:19:27.366Z,27.20
2022-08-10T19:22:26.697Z,27.00
2022-08-10T19:25:01.080Z,26.80
2022-08-10T19:27:52.642Z,26.60
2022-08-10T19:30:29.206Z,26.40
2022-08-10T19:33:21.900Z,26.30
2022-08-10T19:36:20.939Z,26.20
2022-08-10T19:39:08.992Z,26.10
2022-08-10T19:41:44.652Z,26.00
2022-08-10T19:44:52.038Z,25.90
2022-08-10T19:47:46.889Z,25.80
2022-08-10T19:50:15.433Z,25.70
2022-08-10T19:53:03.897Z,25.60
2022-08-10T19:55:37.123Z,25.50
2022-08-10T19:58:22.034Z,25.50
2022-08-10T20:01:02.111Z,25.40
2022-08-10T20:03:53.716Z,25.20
2022-08-10T20:06:34.983Z,25.10
2022-08-10T20:09:10.554Z,25.00
2022-08-10T20:12:03.785Z,24.80
2022-08-10T20:14:48.172Z,24.70
2022-08-10T20:17:51.762Z,24.60
2022-08-10T20:20:40.332Z,24.60
2022-08-10T20:23:16.385Z,24.40
2022-08-10T20:25:59.225Z,24.40
2022-08-10T20:28:42.523Z,24.20
2022-08-10T20:31:17.774Z,24.10
2022-08-10T20:34:01.531Z,24.10
2022-08-10T20:36:34.108Z,24.00
2022-08-10T20:39:15.801Z,23.90
2022-08-10T20:42:11.242Z,23.70
2022-08-10T20:44:44.183Z,23.70
2022-08-10T20:47:26.468Z,23.60
2022-08-10T20:50:05.739Z,23.50
2022-08-10T20:52:35.215Z,23.50
2022-08-10T20:55:08.737Z,23.40
2022-08-10T20:58:00.176Z,23.30
2022-08-10T21:00:45.550Z,23.30
2022-08-10T21:03:44.061Z,23.10
2022-08-10T21:06:43.405Z,23.00
2022-08-10T21:09:38.559Z,23.00
2022-08-10T21:12:20.162Z,22.80
2022-08-10T21:14:58.647Z,22.70
2022-08-10T21:17:47.000Z,22.60
2022-08-10T21:23:08.425Z,22.50
2022-08-10T21:25:41.617Z,22.60
2022-08-10T21:25:58.919Z,22.50
2022-08-10T21:28:44.755Z,22.50
2022-08-10T21:31:42.799Z,22.50
2022-08-10T21:34:19.186Z,22.40
2022-08-10T21:37:16.434Z,22.30
2022-08-10T21:40:04.693Z,22.30
2022-08-10T21:43:11.127Z,22.30
2022-08-10T21:46:16.242Z,22.20
2022-08-10T21:49:14.751Z,22.20
2022-08-10T21:52:23.156Z,22.10
2022-08-10T21:55:24.926Z,22.00
2022-08-10T21:58:38.227Z,21.90
2022-08-10T22:01:39.299Z,21.70
2022-08-10T22:04:26.073Z,21.60
2022-08-10T22:07:13.069Z,21.40
2022-08-10T22:10:04.468Z,21.30
2022-08-10T22:12:57.710Z,21.20
2022-08-10T22:16:09.674Z,21.10
2022-08-10T22:19:01.308Z,21.10
2022-08-10T22:22:19.773Z,20.90
2022-08-10T22:25:20.778Z,20.80
2022-08-10T22:28:17.567Z,20.70
2022-08-10T22:31:32.151Z,20.60
2022-08-10T22:34:40.050Z,20.60
2022-08-10T22:37:43.298Z,20.60
2022-08-10T22:40:34.221Z,20.60
2022-08-10T22:43:35.911Z,20.70
2022-08-10T22:46:38.607Z,20.80
2022-08-10T22:49:05.461Z,20.70
2022-08-10T22:51:56.145Z,20.50
2022-08-10T22:55:03.518Z,20.40
2022-08-10T22:57:48.880Z,20.20
2022-08-10T23:00:18.948Z,20.10
2022-08-10T23:03:23.422Z,20.00
2022-08-10T23:06:00.326Z,19.90
2022-08-10T23:08:49.357Z,19.80
2022-08-10T23:11:24.711Z,19.70
2022-08-10T23:13:59.731Z,19.60
2022-08-10T23:16:47.310Z,19.40
2022-08-10T23:19:23.742Z,19.40
2022-08-10T23:22:04.257Z,19.30
2022-08-10T23:24:44.837Z,19.40
2022-08-10T23:27:38.345Z,19.60
2022-08-10T23:30:10.530Z,19.90
2022-08-10T23:32:45.163Z,20.00
2022-08-10T23:36:05.571Z,20.00
2022-08-10T23:38:04.795Z,20.00
2022-08-10T23:40:32.990Z,20.10
2022-08-10T23:43:01.438Z,20.00
2022-08-10T23:45:29.461Z,19.90
2022-08-10T23:48:20.161Z,19.90
2022-08-10T23:50:59.253Z,19.80
2022-08-10T23:53:47.746Z,19.80
2022-08-10T23:56:18.384Z,19.80
2022-08-10T23:58:52.532Z,19.80
